createdAt,value
2023-05-14T00:01:36.421Z,101270.27
2023-05-14T00:04:04.331Z,101267.12
2023-05-14T00:06:32.202Z,101268.41
2023-05-14T00:08:59.459Z,101270.31
2023-05-14T00:11:26.615Z,101267.64
2023-05-14T00:13:53.770Z,101267.05
2023-05-14T00:16:26.144Z,101269.17
2023-05-14T00:18:53.262Z,101272.10
2023-05-14T00:21:20.460Z,101268.90
2023-05-14T00:23:49.090Z,101272.83
2023-05-14T00:26:16.537Z,101272.20
2023-05-14T00:28:44.371Z,101274.70
2023-05-14T00:31:11.394Z,101271.52
2023-05-14T00:33:38.502Z,101270.47
2023-05-14T00:36:05.564Z,101270.80
2023-05-14T00:38:32.564Z,101266.96
2023-05-14T00:40:59.668Z,101269.42
2023-05-14T00:43:27.524Z,101269.52
2023-05-14T00:45:54.755Z,101265.81
2023-05-14T00:48:22.868Z,101264.54
2023-05-14T00:50:50.067Z,101267.63
2023-05-14T00:53:17.543Z,101268.98
2023-05-14T00:55:45.999Z,101270.17
2023-05-14T00:58:14.156Z,101272.20
2023-05-14T01:00:41.484Z,101271.36
2023-05-14T01:03:09.424Z,101272.59
2023-05-14T01:05:42.695Z,101276.20
2023-05-14T01:08:23.734Z,101277.20
2023-05-14T01:11:14.220Z,101282.33
2023-05-14T01:13:44.477Z,101283.74
2023-05-14T01:16:12.721Z,101281.91
2023-05-14T01:18:40.592Z,101280.98
2023-05-14T01:21:18.839Z,101281.05
2023-05-14T01:23:45.818Z,101281.63
2023-05-14T01:26:12.994Z,101279.73
2023-05-14T01:28:40.182Z,101279.81
2023-05-14T01:31:07.593Z,101280.45
2023-05-14T01:33:34.658Z,101278.50
2023-05-14T01:36:01.768Z,101281.51
2023-05-14T01:38:31.939Z,101285.43
2023-05-14T01:40:59.183Z,101283.88
2023-05-14T01:43:26.265Z,101285.79
2023-05-14T01:45:55.851Z,101282.97
2023-05-14T01:48:23.267Z,101281.41
2023-05-14T01:50:51.791Z,101277.95
2023-05-14T01:53:19.203Z,101280.31
2023-05-14T01:55:47.820Z,101281.09
2023-05-14T01:58:14.835Z,101281.88
2023-05-14T02:00:41.727Z,101280.46
2023-05-14T02:03:08.875Z,101281.17
2023-05-14T02:05:35.865Z,101284.56
2023-05-14T02:08:02.758Z,101281.04
2023-05-14T02:10:29.763Z,101284.90
2023-05-14T02:12:56.710Z,101284.02
2023-05-14T02:15:23.715Z,101283.39
2023-05-14T02:17:50.804Z,101285.83
2023-05-14T02:20:18.114Z,101282.35
2023-05-14T02:22:46.474Z,101278.73
2023-05-14T02:25:13.936Z,101279.98
2023-05-14T02:27:40.925Z,101279.41
2023-05-14T02:30:10.250Z,101284.19
2023-05-14T02:32:39.909Z,101282.13
2023-05-14T02:35:07.226Z,101283.95
2023-05-14T02:38:00.952Z,101283.80
2023-05-14T02:40:28.344Z,101280.05
2023-05-14T02:42:55.356Z,101280.33
2023-05-14T02:45:22.512Z,101276.30
2023-05-14T02:47:49.603Z,101276.25
2023-05-14T02:50:16.715Z,101276.63
2023-05-14T02:52:43.861Z,101277.23
2023-05-14T02:55:11.948Z,101279.72
2023-05-14T02:57:39.029Z,101274.41
2023-05-14T03:00:07.679Z,101275.33
2023-05-14T03:02:36.161Z,101271.55
2023-05-14T03:05:03.856Z,101269.05
2023-05-14T03:07:30.931Z,101270.77
2023-05-14T03:10:00.474Z,101265.73
2023-05-14T03:12:27.487Z,101268.18
2023-05-14T03:14:54.534Z,101273.23
2023-05-14T03:17:21.522Z,101274.50
2023-05-14T03:19:48.610Z,101274.06
2023-05-14T03:22:15.893Z,101271.30
2023-05-14T03:24:43.260Z,101274.50
2023-05-14T03:27:10.832Z,101276.33
2023-05-14T03:29:37.780Z,101277.81
2023-05-14T03:32:04.984Z,101279.48
2023-05-14T03:34:32.030Z,101280.36
2023-05-14T03:36:59.115Z,101284.70
2023-05-14T03:39:26.078Z,101285.80
2023-05-14T03:41:53.054Z,101279.85
2023-05-14T03:44:20.109Z,101287.30
2023-05-14T03:46:47.175Z,101285.31
2023-05-14T03:49:14.442Z,101286.95
2023-05-14T03:51:41.474Z,101286.05
2023-05-14T03:54:08.478Z,101283.52
2023-05-14T03:56:35.900Z,101286.79
2023-05-14T03:59:03.363Z,101286.49
2023-05-14T04:01:32.141Z,101284.57
2023-05-14T04:03:59.331Z,101284.25
2023-05-14T04:06:26.800Z,101283.21
2023-05-14T04:08:55.037Z,101284.31
2023-05-14T04:11:22.504Z,101285.69
2023-05-14T04:13:49.676Z,101281.27
2023-05-14T04:16:17.522Z,101280.73
2023-05-14T04:18:44.682Z,101274.97
2023-05-14T04:21:12.757Z,101277.88
2023-05-14T04:23:39.873Z,101278.59
2023-05-14T04:26:07.020Z,101280.58
2023-05-14T04:28:34.074Z,101278.66
2023-05-14T04:31:01.469Z,101276.48
2023-05-14T04:33:28.930Z,101274.98
2023-05-14T04:35:56.089Z,101277.75
2023-05-14T04:38:23.522Z,101276.48
2023-05-14T04:40:50.633Z,101275.13
2023-05-14T04:43:17.890Z,101274.79
2023-05-14T04:45:45.225Z,101271.25
2023-05-14T04:48:12.479Z,101276.67
2023-05-14T04:50:39.621Z,101280.10
2023-05-14T04:53:06.714Z,101280.58
2023-05-14T04:55:33.908Z,101282.88
2023-05-14T04:58:01.149Z,101284.42
2023-05-14T05:00:28.968Z,101286.38
2023-05-14T05:02:56.128Z,101286.31
2023-05-14T05:05:23.980Z,101286.19
2023-05-14T05:07:51.480Z,101286.61
2023-05-14T05:10:18.657Z,101285.62
2023-05-14T05:12:45.757Z,101290.96
2023-05-14T05:15:12.905Z,101290.77
2023-05-14T05:17:40.130Z,101286.73
2023-05-14T05:20:10.027Z,101286.45
2023-05-14T05:22:37.341Z,101286.19
2023-05-14T05:25:08.467Z,101289.58
2023-05-14T05:27:35.694Z,101285.40
2023-05-14T05:30:04.309Z,101290.05
2023-05-14T05:32:31.667Z,101291.45
2023-05-14T05:34:59.512Z,101295.32
2023-05-14T05:37:26.687Z,101297.64
2023-05-14T05:39:54.380Z,101293.95
2023-05-14T05:42:22.747Z,101287.33
2023-05-14T05:44:50.052Z,101288.88
2023-05-14T05:47:17.409Z,101288.55
2023-05-14T05:49:44.692Z,101289.16
2023-05-14T05:52:11.976Z,101293.80
2023-05-14T05:54:40.133Z,101291.32
2023-05-14T05:57:07.328Z,101290.16
2023-05-14T05:59:34.918Z,101291.23
2023-05-14T06:02:02.328Z,101287.26
2023-05-14T06:04:38.052Z,101283.10
2023-05-14T06:07:41.686Z,101288.29
2023-05-14T06:10:09.049Z,101288.02
2023-05-14T06:12:36.392Z,101287.09
2023-05-14T06:15:03.808Z,101290.29
2023-05-14T06:17:31.051Z,101285.30
2023-05-14T06:19:58.532Z,101282.14
2023-05-14T06:22:25.735Z,101282.17
2023-05-14T06:24:53.004Z,101286.38
2023-05-14T06:27:20.494Z,101282.92
2023-05-14T06:29:47.672Z,101287.59
2023-05-14T06:32:16.452Z,101282.45
2023-05-14T06:34:43.782Z,101286.98
2023-05-14T06:37:11.287Z,101289.31
2023-05-14T06:39:38.632Z,101287.51
2023-05-14T06:42:06.492Z,101290.09
2023-05-14T06:44:36.944Z,101282.85
2023-05-14T06:47:04.260Z,101280.31
2023-05-14T06:49:31.592Z,101276.64
2023-05-14T06:51:59.314Z,101276.36
2023-05-14T06:54:26.543Z,101272.03
2023-05-14T06:56:54.265Z,101273.02
2023-05-14T06:59:21.522Z,101274.98
2023-05-14T07:01:49.077Z,101268.95
2023-05-14T07:04:16.889Z,101269.52
2023-05-14T07:06:44.199Z,101269.61
2023-05-14T07:09:17.220Z,101264.98
2023-05-14T07:11:44.645Z,101266.03
2023-05-14T07:14:11.924Z,101262.77
2023-05-14T07:16:39.050Z,101261.80
2023-05-14T07:19:06.274Z,101259.61
2023-05-14T07:21:33.551Z,101256.68
2023-05-14T07:24:00.752Z,101258.97
2023-05-14T07:26:27.976Z,101256.11
2023-05-14T07:28:55.355Z,101253.65
2023-05-14T07:31:22.734Z,101247.77
2023-05-14T07:33:50.007Z,101247.35
2023-05-14T07:36:17.206Z,101247.89
2023-05-14T07:38:44.664Z,101245.55
2023-05-14T07:41:12.639Z,101248.10
2023-05-14T07:43:40.766Z,101243.71
2023-05-14T07:46:08.077Z,101242.45
2023-05-14T07:48:35.667Z,101241.15
2023-05-14T07:51:03.049Z,101235.48
2023-05-14T07:53:30.401Z,101238.75
2023-05-14T07:55:58.509Z,101237.73
2023-05-14T07:58:26.966Z,101237.30
2023-05-14T08:00:54.104Z,101237.70
2023-05-14T08:03:21.593Z,101238.79
2023-05-14T08:05:49.163Z,101234.91
2023-05-14T08:08:16.431Z,101236.79
2023-05-14T08:10:43.658Z,101237.04
2023-05-14T08:13:11.204Z,101236.16
2023-05-14T08:15:38.553Z,101237.24
2023-05-14T08:18:05.794Z,101236.51
2023-05-14T08:20:33.068Z,101234.04
2023-05-14T08:23:00.213Z,101238.89
2023-05-14T08:25:27.720Z,101233.91
2023-05-14T08:27:55.049Z,101234.73
2023-05-14T08:30:23.370Z,101235.39
2023-05-14T08:32:51.168Z,101232.08
2023-05-14T08:35:19.252Z,101233.08
2023-05-14T08:37:46.539Z,101232.30
2023-05-14T08:40:13.793Z,101232.48
2023-05-14T08:42:42.026Z,101228.79
2023-05-14T08:45:29.780Z,101228.33
2023-05-14T08:47:57.052Z,101223.98
2023-05-14T08:50:24.192Z,101214.30
2023-05-14T08:52:51.406Z,101206.96
2023-05-14T08:55:18.419Z,101205.16
2023-05-14T08:57:45.513Z,101201.02
2023-05-14T09:00:13.313Z,101197.90
2023-05-14T09:02:40.678Z,101196.23
2023-05-14T09:05:09.485Z,101197.34
2023-05-14T09:07:36.631Z,101189.84
2023-05-14T09:10:04.778Z,101188.88
2023-05-14T09:12:32.003Z,101185.88
2023-05-14T09:14:59.337Z,101180.98
2023-05-14T09:17:28.113Z,101185.48
2023-05-14T09:19:55.272Z,101184.27
2023-05-14T09:22:22.609Z,101178.41
2023-05-14T09:25:05.984Z,101172.81
2023-05-14T09:27:33.429Z,101169.11
2023-05-14T09:30:08.326Z,101172.92
2023-05-14T09:32:36.204Z,101165.45
2023-05-14T09:35:14.930Z,101161.39
2023-05-14T09:37:44.132Z,101159.02
2023-05-14T09:40:13.457Z,101156.58
2023-05-14T09:42:40.801Z,101152.18
2023-05-14T09:45:08.763Z,101148.38
2023-05-14T09:47:36.537Z,101141.95
2023-05-14T09:50:04.112Z,101142.00
2023-05-14T09:52:31.321Z,101138.61
2023-05-14T09:54:58.560Z,101135.44
2023-05-14T09:57:27.124Z,101134.09
2023-05-14T09:59:54.454Z,101126.14
2023-05-14T10:02:25.615Z,101127.92
2023-05-14T10:04:58.355Z,101120.27
2023-05-14T10:07:27.651Z,101119.63
2023-05-14T10:09:57.159Z,101120.44
2023-05-14T10:12:25.115Z,101120.06
2023-05-14T10:14:53.998Z,101113.70
2023-05-14T10:17:24.991Z,101113.39
2023-05-14T10:19:53.238Z,101112.54
2023-05-14T10:22:22.850Z,101113.66
2023-05-14T10:24:52.961Z,101112.14
2023-05-14T10:31:41.725Z,101099.42
2023-05-14T10:34:58.835Z,101100.81
2023-05-14T10:37:29.688Z,101099.04
2023-05-14T10:43:10.795Z,101091.33
2023-05-14T10:47:17.070Z,101087.05
2023-05-14T10:51:09.084Z,101088.26
2023-05-14T10:54:48.913Z,101082.79
2023-05-14T10:58:19.871Z,101087.83
2023-05-14T11:05:21.352Z,101122.89
2023-05-14T11:08:57.657Z,101123.31
2023-05-14T11:11:26.520Z,101112.54
2023-05-14T11:13:54.079Z,101118.39
2023-05-14T11:16:23.957Z,101118.11
2023-05-14T11:19:02.174Z,101132.47
2023-05-14T11:21:30.483Z,101137.44
2023-05-14T11:23:57.856Z,101158.42
2023-05-14T11:26:26.225Z,101167.54
2023-05-14T11:28:53.491Z,101163.16
2023-05-14T11:31:21.942Z,101155.56
2023-05-14T11:33:49.189Z,101154.15
2023-05-14T11:36:16.592Z,101146.05
2023-05-14T11:38:54.774Z,101142.00
2023-05-14T11:41:23.585Z,101134.22
2023-05-14T11:43:55.039Z,101125.78
2023-05-14T11:46:23.108Z,101118.05
2023-05-14T11:48:51.113Z,101121.10
2023-05-14T11:51:18.485Z,101128.05
2023-05-14T11:53:47.702Z,101127.58
2023-05-14T11:56:15.014Z,101122.48
2023-05-14T11:58:47.847Z,101110.05
2023-05-14T12:01:15.185Z,101105.53
2023-05-14T12:04:06.902Z,101105.90
2023-05-14T12:06:57.840Z,101103.77
2023-05-14T12:09:26.230Z,101104.46
2023-05-14T12:11:55.621Z,101105.23
2023-05-14T12:14:23.984Z,101104.93
2023-05-14T12:16:54.464Z,101102.67
2023-05-14T12:19:24.948Z,101103.44
2023-05-14T12:21:52.339Z,101099.30
2023-05-14T12:24:20.481Z,101096.93
2023-05-14T12:27:09.147Z,101093.75
2023-05-14T12:29:39.570Z,101094.71
2023-05-14T12:32:10.162Z,101093.48
2023-05-14T12:34:37.892Z,101096.41
2023-05-14T12:37:06.257Z,101100.86
2023-05-14T12:39:33.780Z,101104.70
2023-05-14T12:42:01.396Z,101110.78
2023-05-14T12:44:28.794Z,101103.43
2023-05-14T12:46:56.216Z,101104.59
2023-05-14T12:49:23.776Z,101106.41
2023-05-14T12:51:56.706Z,101111.82
2023-05-14T12:54:31.981Z,101111.41
2023-05-14T12:56:59.325Z,101111.78
2023-05-14T12:59:26.582Z,101107.27
2023-05-14T13:01:53.981Z,101102.70
2023-05-14T13:04:21.219Z,101100.09
2023-05-14T13:06:48.410Z,101099.95
2023-05-14T13:09:15.745Z,101096.83
2023-05-14T13:11:42.914Z,101090.10
2023-05-14T13:14:10.385Z,101090.34
2023-05-14T13:16:37.542Z,101091.10
2023-05-14T13:19:04.796Z,101092.13
2023-05-14T13:21:32.432Z,101093.03
2023-05-14T13:23:59.675Z,101088.74
2023-05-14T13:26:28.558Z,101094.49
2023-05-14T13:28:55.949Z,101095.07
2023-05-14T13:31:23.192Z,101100.40
2023-05-14T13:33:50.363Z,101100.98
2023-05-14T13:36:17.521Z,101100.06
2023-05-14T13:38:46.254Z,101102.51
2023-05-14T13:41:13.416Z,101102.89
2023-05-14T13:43:41.787Z,101108.85
2023-05-14T13:46:09.079Z,101106.48
2023-05-14T13:48:37.558Z,101105.51
2023-05-14T13:51:04.895Z,101102.23
2023-05-14T13:53:32.089Z,101101.59
2023-05-14T13:56:01.446Z,101096.35
2023-05-14T13:58:28.660Z,101096.04
2023-05-14T14:00:56.823Z,101099.24
2023-05-14T14:03:23.963Z,101095.27
2023-05-14T14:05:52.508Z,101096.27
2023-05-14T14:08:23.906Z,101094.73
2023-05-14T14:10:51.868Z,101096.06
2023-05-14T14:13:18.984Z,101092.95
2023-05-14T14:15:46.083Z,101092.09
2023-05-14T14:18:13.175Z,101087.76
2023-05-14T14:20:40.225Z,101080.33
2023-05-14T14:23:07.279Z,101078.63
2023-05-14T14:25:34.429Z,101078.41
2023-05-14T14:28:01.848Z,101081.02
2023-05-14T14:30:29.160Z,101081.09
2023-05-14T14:32:56.192Z,101081.29
2023-05-14T14:35:23.550Z,101085.45
2023-05-14T14:37:53.867Z,101083.89
2023-05-14T14:40:21.096Z,101085.63
2023-05-14T14:42:48.247Z,101092.16
2023-05-14T14:45:15.479Z,101091.14
2023-05-14T14:47:46.590Z,101093.15
2023-05-14T14:50:13.937Z,101089.52
2023-05-14T14:52:41.488Z,101088.80
2023-05-14T14:55:09.092Z,101087.42
2023-05-14T14:57:36.227Z,101084.86
2023-05-14T15:00:03.995Z,101083.18
2023-05-14T15:02:31.162Z,101079.56
2023-05-14T15:04:58.432Z,101074.02
2023-05-14T15:07:26.225Z,101072.27
2023-05-14T15:09:53.356Z,101071.38
2023-05-14T15:12:20.635Z,101069.51
2023-05-14T15:14:48.996Z,101070.04
2023-05-14T15:17:16.292Z,101068.62
2023-05-14T15:19:43.563Z,101074.21
2023-05-14T15:22:10.994Z,101078.33
2023-05-14T15:24:38.003Z,101076.56
2023-05-14T15:27:05.131Z,101077.91
2023-05-14T15:29:32.440Z,101080.94
2023-05-14T15:31:59.547Z,101076.96
2023-05-14T15:34:26.713Z,101081.84
2023-05-14T15:36:53.698Z,101080.00
2023-05-14T15:39:20.705Z,101078.45
2023-05-14T15:41:47.826Z,101073.20
2023-05-14T15:44:14.934Z,101074.20
2023-05-14T15:46:42.115Z,101075.30
2023-05-14T15:49:09.261Z,101071.89
2023-05-14T15:51:36.422Z,101073.17
2023-05-14T15:54:03.727Z,101067.14
2023-05-14T15:56:31.143Z,101069.09
2023-05-14T15:58:58.336Z,101074.45
2023-05-14T16:01:25.521Z,101070.55
2023-05-14T16:03:52.837Z,101073.64
2023-05-14T16:06:20.224Z,101072.43
2023-05-14T16:08:47.260Z,101075.14
2023-05-14T16:11:14.455Z,101073.64
2023-05-14T16:13:41.959Z,101072.82
2023-05-14T16:16:09.285Z,101074.94
2023-05-14T16:18:36.501Z,101077.50
2023-05-14T16:21:03.864Z,101074.81
2023-05-14T16:23:31.220Z,101072.53
2023-05-14T16:25:58.424Z,101075.70
2023-05-14T16:28:25.579Z,101074.47
2023-05-14T16:30:52.812Z,101075.33
2023-05-14T16:33:20.100Z,101072.14
2023-05-14T16:35:47.233Z,101072.73
2023-05-14T16:38:14.370Z,101077.49
2023-05-14T16:40:42.020Z,101078.04
2023-05-14T16:43:09.270Z,101079.59
2023-05-14T16:45:37.688Z,101077.20
2023-05-14T16:48:05.479Z,101080.23
2023-05-14T16:50:32.703Z,101080.92
2023-05-14T16:52:59.835Z,101079.91
2023-05-14T16:55:27.047Z,101076.48
2023-05-14T16:57:54.172Z,101077.81
2023-05-14T17:00:21.504Z,101083.17
2023-05-14T17:02:50.276Z,101081.58
2023-05-14T17:05:18.895Z,101084.30
2023-05-14T17:07:46.130Z,101085.01
2023-05-14T17:10:13.287Z,101085.65
2023-05-14T17:12:40.482Z,101088.36
2023-05-14T17:15:08.063Z,101083.81
2023-05-14T17:17:36.064Z,101083.94
2023-05-14T17:20:06.033Z,101084.41
2023-05-14T17:22:33.267Z,101087.80
2023-05-14T17:25:31.781Z,101090.02
2023-05-14T17:27:59.177Z,101090.98
2023-05-14T17:30:26.722Z,101087.69
2023-05-14T17:32:54.025Z,101089.89
2023-05-14T17:35:21.307Z,101087.63
2023-05-14T17:37:48.753Z,101088.40
2023-05-14T17:40:15.850Z,101087.80
2023-05-14T17:42:45.757Z,101092.05
2023-05-14T17:45:13.753Z,101089.92
2023-05-14T17:47:41.020Z,101085.98
2023-05-14T17:50:08.524Z,101090.11
2023-05-14T17:52:35.832Z,101092.83
2023-05-14T17:55:02.983Z,101093.20
2023-05-14T17:57:30.094Z,101094.13
2023-05-14T17:59:57.179Z,101098.25
2023-05-14T18:02:24.280Z,101102.62
2023-05-14T18:04:52.514Z,101103.30
2023-05-14T18:07:21.053Z,101104.39
2023-05-14T18:09:48.620Z,101107.23
2023-05-14T18:12:15.900Z,101108.86
2023-05-14T18:14:45.355Z,101113.52
2023-05-14T18:17:12.862Z,101113.24
2023-05-14T18:19:41.280Z,101113.00
2023-05-14T18:22:08.396Z,101113.20
2023-05-14T18:24:35.398Z,101107.54
2023-05-14T18:27:02.690Z,101106.70
2023-05-14T18:29:32.627Z,101105.29
2023-05-14T18:32:00.140Z,101105.56
2023-05-14T18:34:28.187Z,101106.92
2023-05-14T18:44:37.864Z,101117.53
2023-05-14T18:47:40.960Z,101123.03
2023-05-14T18:50:26.696Z,101128.28
2023-05-14T18:53:33.170Z,101132.29
2023-05-14T18:56:19.725Z,101134.88
2023-05-14T18:59:20.276Z,101135.17
2023-05-14T19:01:47.903Z,101132.31
2023-05-14T19:04:15.297Z,101125.20
2023-05-14T19:06:49.996Z,101124.60
2023-05-14T19:09:21.332Z,101124.75
2023-05-14T19:12:25.825Z,101123.32
2023-05-14T19:15:31.454Z,101126.02
2023-05-14T19:18:02.181Z,101122.86
2023-05-14T19:20:34.497Z,101122.35
2023-05-14T19:23:04.520Z,101129.78
2023-05-14T19:25:31.862Z,101132.01
2023-05-14T19:28:05.153Z,101134.94
2023-05-14T19:30:33.209Z,101134.09
2023-05-14T19:33:00.490Z,101135.50
2023-05-14T19:35:27.825Z,101140.05
2023-05-14T19:42:05.149Z,101141.94
2023-05-14T19:48:56.395Z,101137.52
2023-05-14T19:55:36.468Z,101130.42
2023-05-14T20:01:35.040Z,101124.64
2023-05-14T20:04:02.578Z,101117.89
2023-05-14T20:06:29.955Z,101117.00
2023-05-14T20:08:57.564Z,101116.86
2023-05-14T20:11:24.910Z,101118.98
2023-05-14T20:13:53.070Z,101117.09
2023-05-14T20:16:20.380Z,101117.30
2023-05-14T20:18:47.768Z,101119.11
2023-05-14T20:21:15.149Z,101119.46
2023-05-14T20:23:42.585Z,101118.08
2023-05-14T20:26:10.600Z,101122.42
2023-05-14T20:28:37.915Z,101120.59
2023-05-14T20:31:05.273Z,101116.55
2023-05-14T20:33:32.868Z,101119.79
2023-05-14T20:36:00.631Z,101121.51
2023-05-14T20:38:29.611Z,101120.60
2023-05-14T20:40:57.106Z,101121.56
2023-05-14T20:43:42.686Z,101117.20
2023-05-14T20:46:25.948Z,101118.32
2023-05-14T20:49:00.979Z,101118.84
2023-05-14T20:51:49.161Z,101114.45
2023-05-14T20:57:43.748Z,101111.59
2023-05-14T21:01:05.724Z,101110.96
2023-05-14T21:17:35.620Z,101106.19
2023-05-14T21:23:57.780Z,101101.42
2023-05-14T21:26:59.375Z,101103.18
2023-05-14T21:29:44.703Z,101101.53
2023-05-14T21:39:30.789Z,101104.41
2023-05-14T21:42:31.983Z,101105.29
2023-05-14T21:45:00.366Z,101106.55
2023-05-14T21:47:28.271Z,101104.05
2023-05-14T21:49:55.714Z,101097.55
2023-05-14T21:52:22.941Z,101092.00
2023-05-14T21:55:09.767Z,101095.14
2023-05-14T21:58:28.666Z,101092.74
2023-05-14T22:09:09.604Z,101081.45
2023-05-14T22:12:12.824Z,101078.77
2023-05-14T22:15:29.666Z,101075.06
2023-05-14T22:18:54.004Z,101073.09
2023-05-14T22:25:39.322Z,101070.60
2023-05-14T22:28:08.114Z,101075.02
2023-05-14T22:30:36.390Z,101075.30
2023-05-14T22:33:07.140Z,101073.64
2023-05-14T22:35:41.702Z,101074.58
2023-05-14T22:38:11.551Z,101066.70
2023-05-14T22:40:56.435Z,101064.30
2023-05-14T22:43:43.777Z,101064.83
2023-05-14T22:47:09.724Z,101064.95
2023-05-14T22:50:02.831Z,101062.51
2023-05-14T22:56:36.834Z,101065.09
2023-05-14T23:00:19.491Z,101066.84
2023-05-14T23:03:38.895Z,101070.60
2023-05-14T23:06:37.695Z,101070.00
2023-05-14T23:13:12.917Z,101076.59
2023-05-14T23:19:28.852Z,101066.95
2023-05-14T23:22:30.643Z,101070.17
2023-05-14T23:26:00.517Z,101064.46
2023-05-14T23:29:08.489Z,101060.55
2023-05-14T23:31:36.240Z,101061.44
2023-05-14T23:34:08.679Z,101061.16
2023-05-14T23:36:39.264Z,101066.52
2023-05-14T23:39:06.865Z,101064.64
2023-05-14T23:41:35.359Z,101065.67
2023-05-14T23:44:14.671Z,101062.62
